createdAt,value
2023-04-07T00:00:56.073Z,14.20
2023-04-07T00:03:23.830Z,15.30
2023-04-07T00:05:51.183Z,14.40
2023-04-07T00:08:18.552Z,14.60
2023-04-07T00:10:45.840Z,14.45
2023-04-07T00:13:13.089Z,14.90
2023-04-07T00:15:40.453Z,14.10
2023-04-07T00:18:07.822Z,14.27
2023-04-07T00:20:35.140Z,13.70
2023-04-07T00:23:02.437Z,15.02
2023-04-07T00:25:29.684Z,14.10
2023-04-07T00:27:56.907Z,13.10
2023-04-07T00:30:24.337Z,13.60
2023-04-07T00:32:51.845Z,13.38
2023-04-07T00:35:19.199Z,12.93
2023-04-07T00:37:46.452Z,13.07
2023-04-07T00:40:13.764Z,12.65
2023-04-07T00:42:41.338Z,12.18
2023-04-07T00:45:10.592Z,12.35
2023-04-07T00:47:38.948Z,11.85
2023-04-07T00:50:06.694Z,11.70
2023-04-07T00:52:33.923Z,11.82
2023-04-07T00:55:01.991Z,12.77
2023-04-07T00:57:29.241Z,12.10
2023-04-07T00:59:56.535Z,11.90
2023-04-07T01:02:44.039Z,12.13
2023-04-07T01:05:17.104Z,12.60
2023-04-07T01:08:02.379Z,12.43
2023-04-07T01:10:51.671Z,12.35
2023-04-07T01:13:26.209Z,11.63
2023-04-07T01:15:59.535Z,11.40
2023-04-07T01:18:32.265Z,12.15
2023-04-07T01:21:05.115Z,11.80
2023-04-07T01:24:06.800Z,13.10
2023-04-07T01:26:34.102Z,12.15
2023-04-07T01:29:37.335Z,12.07
2023-04-07T01:32:06.244Z,11.70
2023-04-07T01:34:33.677Z,12.05
2023-04-07T01:37:01.988Z,12.23
2023-04-07T01:39:29.381Z,12.50
2023-04-07T01:41:57.094Z,12.70
2023-04-07T01:44:24.428Z,11.32
2023-04-07T01:46:51.882Z,11.27
2023-04-07T01:49:19.141Z,11.63
2023-04-07T01:51:52.371Z,11.85
2023-04-07T01:54:19.691Z,11.83
2023-04-07T01:56:46.974Z,12.27
2023-04-07T01:59:14.252Z,12.73
2023-04-07T02:01:42.743Z,13.38
2023-04-07T02:04:26.264Z,13.02
2023-04-07T02:06:56.486Z,13.70
2023-04-07T02:09:33.103Z,11.45
2023-04-07T02:12:00.979Z,12.43
2023-04-07T02:14:32.410Z,11.60
2023-04-07T02:17:04.267Z,11.25
2023-04-07T02:19:34.734Z,10.73
2023-04-07T02:22:05.596Z,10.85
2023-04-07T02:24:32.923Z,10.68
2023-04-07T02:27:02.167Z,10.88
2023-04-07T02:29:29.654Z,11.27
2023-04-07T02:31:56.994Z,11.67
2023-04-07T02:34:24.337Z,11.73
2023-04-07T02:36:51.672Z,12.00
2023-04-07T02:39:18.961Z,11.38
2023-04-07T02:41:46.307Z,11.40
2023-04-07T02:44:13.565Z,10.00
2023-04-07T02:46:41.441Z,10.38
2023-04-07T02:49:08.750Z,10.43
2023-04-07T02:51:35.986Z,10.30
2023-04-07T02:54:03.300Z,9.20
2023-04-07T02:56:31.450Z,9.63
2023-04-07T02:58:58.822Z,9.10
2023-04-07T03:01:26.506Z,9.40
2023-04-07T03:03:54.130Z,9.32
2023-04-07T03:06:24.625Z,9.45
2023-04-07T03:09:09.587Z,8.27
2023-04-07T03:11:37.509Z,8.80
2023-04-07T03:14:04.872Z,8.90
2023-04-07T03:16:33.532Z,9.68
2023-04-07T03:19:08.984Z,11.23
2023-04-07T03:21:40.502Z,9.67
2023-04-07T03:24:08.161Z,9.75
2023-04-07T03:26:35.528Z,10.10
2023-04-07T03:29:04.402Z,10.68
2023-04-07T03:31:32.195Z,10.00
2023-04-07T03:33:59.576Z,10.83
2023-04-07T03:36:28.242Z,11.13
2023-04-07T03:38:58.131Z,11.65
2023-04-07T03:41:25.560Z,11.63
2023-04-07T03:43:52.924Z,11.32
2023-04-07T03:46:21.511Z,11.03
2023-04-07T03:48:48.845Z,10.95
2023-04-07T03:51:16.304Z,11.40
2023-04-07T03:53:45.779Z,11.73
2023-04-07T03:56:25.407Z,11.88
2023-04-07T03:58:53.744Z,10.80
2023-04-07T04:01:31.449Z,11.02
2023-04-07T04:04:05.525Z,10.68
2023-04-07T04:06:32.983Z,10.75
2023-04-07T04:09:29.808Z,10.20
2023-04-07T04:11:57.150Z,10.13
2023-04-07T04:14:25.017Z,10.43
2023-04-07T04:16:57.279Z,10.05
2023-04-07T04:19:32.009Z,10.30
2023-04-07T04:22:03.654Z,10.88
2023-04-07T04:24:35.819Z,11.07
2023-04-07T04:27:04.714Z,11.10
2023-04-07T04:29:33.430Z,10.90
2023-04-07T04:32:02.935Z,10.10
2023-04-07T04:34:31.023Z,9.10
2023-04-07T04:36:59.541Z,9.83
2023-04-07T04:39:27.101Z,10.02
2023-04-07T04:41:54.489Z,10.32
2023-04-07T04:44:25.400Z,9.82
2023-04-07T04:46:53.039Z,10.15
2023-04-07T04:49:20.489Z,9.97
2023-04-07T04:51:50.010Z,11.25
2023-04-07T04:54:19.248Z,10.77
2023-04-07T04:56:46.519Z,10.48
2023-04-07T04:59:13.938Z,10.85
2023-04-07T05:01:58.969Z,10.77
2023-04-07T05:04:28.436Z,10.63
2023-04-07T05:07:03.590Z,11.00
2023-04-07T05:09:32.579Z,11.25
2023-04-07T05:11:59.945Z,10.93
2023-04-07T05:14:29.521Z,11.40
2023-04-07T05:17:04.328Z,11.55
2023-04-07T05:19:32.540Z,11.88
2023-04-07T05:22:05.600Z,10.90
2023-04-07T05:24:41.181Z,11.43
2023-04-07T05:27:08.485Z,10.43
2023-04-07T05:29:36.633Z,10.90
2023-04-07T05:32:05.950Z,11.82
2023-04-07T05:34:33.638Z,12.63
2023-04-07T05:37:01.042Z,10.90
2023-04-07T05:39:28.878Z,10.97
2023-04-07T05:41:58.191Z,10.43
2023-04-07T05:44:27.708Z,10.30
2023-04-07T05:46:56.070Z,9.60
2023-04-07T05:49:25.262Z,9.18
2023-04-07T05:52:01.204Z,9.50
2023-04-07T05:54:28.638Z,9.63
2023-04-07T05:56:57.846Z,9.35
2023-04-07T05:59:25.192Z,9.65
2023-04-07T06:01:53.189Z,10.65
2023-04-07T06:04:21.200Z,11.13
2023-04-07T06:06:50.751Z,11.30
2023-04-07T06:09:19.231Z,12.02
2023-04-07T06:11:47.215Z,12.98
2023-04-07T06:14:17.647Z,13.32
2023-04-07T06:16:44.960Z,13.63
2023-04-07T06:19:12.390Z,15.13
2023-04-07T06:21:40.091Z,14.05
2023-04-07T06:24:07.644Z,13.45
2023-04-07T06:26:36.329Z,14.35
2023-04-07T06:29:03.689Z,16.43
2023-04-07T06:31:31.483Z,16.98
2023-04-07T06:33:58.824Z,16.08
2023-04-07T06:36:27.744Z,16.52
2023-04-07T06:38:55.656Z,17.42
2023-04-07T06:41:22.904Z,16.77
2023-04-07T06:43:51.501Z,16.25
2023-04-07T06:46:19.111Z,15.00
2023-04-07T06:48:46.441Z,16.40
2023-04-07T06:51:13.698Z,16.45
2023-04-07T06:53:42.043Z,15.90
2023-04-07T06:56:10.749Z,15.63
2023-04-07T06:58:38.185Z,14.55
2023-04-07T07:01:06.187Z,14.25
2023-04-07T07:03:33.585Z,15.32
2023-04-07T07:06:01.255Z,14.80
2023-04-07T07:08:29.143Z,14.55
2023-04-07T07:10:56.494Z,13.75
2023-04-07T07:13:24.933Z,13.00
2023-04-07T07:15:52.587Z,12.30
2023-04-07T07:18:20.123Z,14.97
2023-04-07T07:20:47.350Z,14.55
2023-04-07T07:23:14.681Z,15.02
2023-04-07T07:25:42.091Z,13.98
2023-04-07T07:28:09.824Z,12.60
2023-04-07T07:30:39.384Z,11.63
2023-04-07T07:33:06.801Z,10.95
2023-04-07T07:35:34.442Z,12.20
2023-04-07T07:38:01.752Z,11.57
2023-04-07T07:40:29.025Z,11.90
2023-04-07T07:42:56.726Z,11.67
2023-04-07T07:45:24.100Z,10.77
2023-04-07T07:47:51.358Z,10.68
2023-04-07T07:50:18.733Z,10.18
2023-04-07T07:52:46.302Z,10.25
2023-04-07T07:55:13.542Z,10.47
2023-04-07T07:57:40.805Z,10.48
2023-04-07T08:00:08.581Z,9.85
2023-04-07T08:02:41.994Z,9.85
2023-04-07T08:05:09.631Z,8.82
2023-04-07T08:07:37.766Z,9.60
2023-04-07T08:10:05.729Z,9.57
2023-04-07T08:12:32.946Z,10.05
2023-04-07T08:15:00.413Z,9.95
2023-04-07T08:17:27.698Z,10.50
2023-04-07T08:19:54.961Z,10.30
2023-04-07T08:22:25.267Z,10.88
2023-04-07T08:24:52.522Z,12.05
2023-04-07T08:27:20.902Z,10.73
2023-04-07T08:30:01.074Z,11.40
2023-04-07T08:32:35.696Z,10.13
2023-04-07T08:35:03.131Z,10.93
2023-04-07T08:37:31.468Z,11.45
2023-04-07T08:39:58.737Z,11.68
2023-04-07T08:42:28.478Z,11.02
2023-04-07T08:45:05.854Z,12.07
2023-04-07T08:47:34.178Z,11.38
2023-04-07T08:50:08.939Z,11.13
2023-04-07T08:52:46.634Z,12.02
2023-04-07T08:55:13.926Z,11.68
2023-04-07T08:57:44.103Z,12.00
2023-04-07T09:00:11.983Z,12.18
2023-04-07T09:02:41.139Z,11.32
2023-04-07T09:05:09.095Z,12.25
2023-04-07T09:07:37.537Z,12.43
2023-04-07T09:10:05.516Z,12.67
2023-04-07T09:12:32.988Z,12.50
2023-04-07T09:15:00.492Z,13.32
2023-04-07T09:17:28.454Z,12.95
2023-04-07T09:19:59.292Z,12.60
2023-04-07T09:22:43.179Z,13.57
2023-04-07T09:25:22.923Z,13.40
2023-04-07T09:28:00.731Z,13.50
2023-04-07T09:30:29.143Z,13.38
2023-04-07T09:32:56.793Z,11.85
2023-04-07T09:35:24.853Z,12.63
2023-04-07T09:38:10.662Z,12.75
2023-04-07T09:40:38.635Z,14.10
2023-04-07T09:43:06.081Z,14.93
2023-04-07T09:45:36.552Z,13.57
2023-04-07T09:48:08.794Z,12.40
2023-04-07T09:50:39.157Z,13.65
2023-04-07T09:53:07.141Z,13.80
2023-04-07T09:55:35.048Z,13.32
2023-04-07T09:58:02.531Z,14.38
2023-04-07T10:00:29.831Z,13.47
2023-04-07T10:02:57.951Z,13.65
2023-04-07T10:05:25.560Z,11.25
2023-04-07T10:07:52.899Z,11.10
2023-04-07T10:10:20.404Z,10.55
2023-04-07T10:12:47.690Z,10.67
2023-04-07T10:15:16.046Z,11.23
2023-04-07T10:17:48.423Z,11.20
2023-04-07T10:20:20.957Z,9.40
2023-04-07T10:22:49.396Z,10.10
2023-04-07T10:25:18.539Z,9.70
2023-04-07T10:27:51.314Z,10.20
2023-04-07T10:30:22.456Z,8.88
2023-04-07T10:32:50.621Z,8.80
2023-04-07T10:35:18.034Z,9.05
2023-04-07T10:38:07.125Z,8.73
2023-04-07T10:40:35.577Z,9.23
2023-04-07T10:43:03.061Z,10.52
2023-04-07T10:45:48.944Z,10.13
2023-04-07T10:48:17.255Z,11.60
2023-04-07T10:51:08.393Z,11.50
2023-04-07T10:53:36.273Z,11.43
2023-04-07T10:56:03.599Z,12.43
2023-04-07T10:58:33.915Z,12.65
2023-04-07T11:01:01.354Z,12.02
2023-04-07T11:03:29.600Z,12.87
2023-04-07T11:06:10.673Z,12.40
2023-04-07T11:08:39.576Z,11.82
2023-04-07T11:11:09.419Z,10.48
2023-04-07T11:13:46.861Z,11.45
2023-04-07T11:16:17.977Z,10.93
2023-04-07T11:18:46.432Z,11.63
2023-04-07T11:21:19.377Z,12.27
2023-04-07T11:23:47.965Z,11.68
2023-04-07T11:26:16.121Z,12.30
2023-04-07T11:28:46.918Z,12.07
2023-04-07T11:31:23.043Z,14.57
2023-04-07T11:34:00.339Z,13.38
2023-04-07T11:36:38.874Z,12.38
2023-04-07T11:39:06.145Z,12.50
2023-04-07T11:41:33.688Z,12.27
2023-04-07T11:44:08.294Z,11.48
2023-04-07T11:46:36.333Z,11.05
2023-04-07T11:49:11.115Z,10.15
2023-04-07T11:51:38.528Z,11.50
2023-04-07T11:54:05.924Z,11.57
2023-04-07T11:56:48.094Z,11.00
2023-04-07T11:59:23.258Z,11.20
2023-04-07T12:01:51.319Z,11.27
2023-04-07T12:04:19.290Z,11.32
2023-04-07T12:06:47.660Z,11.40
2023-04-07T12:09:29.328Z,9.80
2023-04-07T12:11:57.916Z,8.98
2023-04-07T12:14:26.358Z,9.50
2023-04-07T12:16:56.532Z,8.85
2023-04-07T12:19:25.617Z,8.77
2023-04-07T12:21:52.891Z,7.60
2023-04-07T12:24:20.214Z,7.78
2023-04-07T12:26:48.086Z,8.40
2023-04-07T12:29:16.374Z,8.10
2023-04-07T12:31:43.938Z,8.80
2023-04-07T12:34:11.487Z,9.30
2023-04-07T12:36:38.973Z,9.30
2023-04-07T12:39:06.463Z,9.20
2023-04-07T12:41:33.758Z,8.18
2023-04-07T12:44:01.037Z,8.03
2023-04-07T12:46:28.417Z,8.52
2023-04-07T12:48:56.224Z,10.00
2023-04-07T12:51:23.688Z,9.35
2023-04-07T12:53:51.192Z,7.13
2023-04-07T12:56:18.540Z,7.67
2023-04-07T12:58:46.049Z,7.15
2023-04-07T13:01:13.501Z,6.47
2023-04-07T13:03:41.278Z,6.45
2023-04-07T13:06:08.592Z,6.85
2023-04-07T13:08:36.006Z,6.83
2023-04-07T13:11:03.434Z,6.95
2023-04-07T13:13:31.406Z,8.38
2023-04-07T13:15:58.770Z,7.57
2023-04-07T13:18:26.169Z,7.75
2023-04-07T13:21:13.158Z,8.53
2023-04-07T13:23:43.699Z,8.02
2023-04-07T13:26:11.711Z,7.88
2023-04-07T13:28:39.168Z,7.45
2023-04-07T13:31:06.576Z,7.88
2023-04-07T13:33:34.827Z,7.33
2023-04-07T13:36:02.166Z,7.80
2023-04-07T13:38:29.522Z,7.78
2023-04-07T13:40:56.880Z,7.28
2023-04-07T13:43:24.193Z,8.38
2023-04-07T13:45:51.755Z,7.50
2023-04-07T13:48:19.125Z,7.53
2023-04-07T13:50:46.408Z,7.30
2023-04-07T13:53:13.669Z,7.40
2023-04-07T13:55:41.192Z,6.78
2023-04-07T13:58:08.539Z,6.50
2023-04-07T14:00:38.356Z,7.63
2023-04-07T14:03:05.829Z,7.78
2023-04-07T14:05:33.286Z,7.43
2023-04-07T14:08:00.576Z,7.97
2023-04-07T14:10:27.895Z,6.87
2023-04-07T14:12:55.120Z,6.28
2023-04-07T14:15:22.420Z,6.82
2023-04-07T14:17:49.778Z,7.50
2023-04-07T14:20:17.171Z,7.18
2023-04-07T14:22:44.630Z,6.70
2023-04-07T14:25:12.272Z,7.50
2023-04-07T14:27:39.645Z,8.02
2023-04-07T14:30:07.536Z,8.43
2023-04-07T14:32:36.010Z,8.18
2023-04-07T14:35:03.335Z,8.20
2023-04-07T14:37:30.688Z,9.10
2023-04-07T14:42:29.798Z,8.20
2023-04-07T14:44:57.154Z,8.10
2023-04-07T14:47:24.506Z,8.33
2023-04-07T14:49:53.541Z,9.13
2023-04-07T14:52:22.080Z,7.85
2023-04-07T14:54:49.491Z,8.20
2023-04-07T14:57:17.169Z,7.65
2023-04-07T14:59:44.623Z,7.80
2023-04-07T15:02:12.025Z,10.25
2023-04-07T15:04:39.634Z,9.55
2023-04-07T15:07:07.014Z,9.65
2023-04-07T15:09:34.388Z,12.10
2023-04-07T15:12:02.255Z,11.03
2023-04-07T15:14:29.615Z,9.77
2023-04-07T15:16:56.893Z,10.07
2023-04-07T15:19:24.114Z,9.93
2023-04-07T15:21:51.381Z,9.23
2023-04-07T15:24:19.700Z,9.17
2023-04-07T15:26:47.017Z,8.85
2023-04-07T15:29:14.305Z,8.70
2023-04-07T15:31:41.583Z,8.20
2023-04-07T15:34:08.840Z,8.85
2023-04-07T15:36:36.085Z,8.63
2023-04-07T15:39:04.521Z,9.38
2023-04-07T15:41:31.885Z,12.00
2023-04-07T15:44:01.491Z,12.77
2023-04-07T15:46:28.979Z,11.70
2023-04-07T15:48:56.304Z,10.93
2023-04-07T15:51:23.664Z,10.38
2023-04-07T15:53:51.105Z,11.18
2023-04-07T15:56:18.653Z,11.20
2023-04-07T15:58:46.057Z,10.65
2023-04-07T16:01:13.412Z,10.57
2023-04-07T16:03:40.957Z,10.93
2023-04-07T16:06:08.346Z,10.77
2023-04-07T16:08:35.685Z,10.82
2023-04-07T16:11:02.968Z,11.40
2023-04-07T16:13:30.307Z,10.93
2023-04-07T16:15:57.757Z,11.32
2023-04-07T16:18:25.042Z,11.82
2023-04-07T16:20:52.254Z,11.38
2023-04-07T16:23:19.567Z,11.40
2023-04-07T16:25:46.839Z,14.90
2023-04-07T16:28:14.095Z,14.00
2023-04-07T16:30:41.446Z,12.85
2023-04-07T16:33:08.789Z,12.77
2023-04-07T16:35:36.393Z,11.93
2023-04-07T16:38:06.019Z,12.43
2023-04-07T16:40:33.503Z,12.00
2023-04-07T16:43:00.846Z,12.60
2023-04-07T16:45:28.128Z,12.00
2023-04-07T16:47:55.522Z,13.00
2023-04-07T16:50:22.949Z,12.07
2023-04-07T16:52:50.294Z,12.38
2023-04-07T16:55:17.658Z,12.65
2023-04-07T16:57:45.004Z,12.27
2023-04-07T17:00:13.061Z,12.23
2023-04-07T17:02:40.483Z,12.07
2023-04-07T17:05:08.311Z,12.73
2023-04-07T17:07:36.013Z,12.40
2023-04-07T17:10:03.788Z,12.32
2023-04-07T17:12:31.047Z,12.18
2023-04-07T17:14:58.329Z,12.43
2023-04-07T17:17:25.770Z,11.82
2023-04-07T17:19:53.889Z,11.60
2023-04-07T17:22:21.976Z,11.60
2023-04-07T17:24:49.286Z,12.45
2023-04-07T17:27:16.543Z,12.67
2023-04-07T17:29:43.821Z,13.27
2023-04-07T17:32:11.070Z,12.15
2023-04-07T17:34:38.306Z,12.27
2023-04-07T17:37:05.788Z,12.88
2023-04-07T17:39:33.051Z,12.83
2023-04-07T17:42:00.394Z,13.95
2023-04-07T17:44:27.801Z,13.68
2023-04-07T17:46:55.310Z,14.32
2023-04-07T17:49:22.721Z,13.77
2023-04-07T17:51:50.008Z,14.40
2023-04-07T17:54:17.346Z,14.15
2023-04-07T17:56:44.618Z,13.88
2023-04-07T17:59:12.045Z,14.32
2023-04-07T18:01:39.777Z,13.82
2023-04-07T18:04:07.387Z,13.60
2023-04-07T18:06:35.218Z,13.85
2023-04-07T18:09:04.637Z,15.15
2023-04-07T18:11:32.816Z,14.82
2023-04-07T18:14:00.568Z,14.43
2023-04-07T18:16:28.025Z,13.97
2023-04-07T18:18:55.424Z,14.50
2023-04-07T18:21:22.753Z,15.35
2023-04-07T18:23:50.185Z,15.23
2023-04-07T18:26:17.641Z,15.30
2023-04-07T18:28:44.910Z,15.43
2023-04-07T18:31:12.522Z,15.27
2023-04-07T18:33:39.853Z,16.20
2023-04-07T18:36:07.668Z,15.55
2023-04-07T18:38:35.958Z,15.88
2023-04-07T18:41:05.769Z,14.53
2023-04-07T18:43:33.031Z,15.98
2023-04-07T18:46:00.313Z,15.35
2023-04-07T18:48:27.761Z,15.73
2023-04-07T18:50:55.532Z,16.70
2023-04-07T18:53:23.473Z,17.03
2023-04-07T18:55:51.338Z,16.48
2023-04-07T18:58:19.394Z,18.10
2023-04-07T19:00:47.582Z,16.70
2023-04-07T19:03:14.987Z,17.55
2023-04-07T19:05:42.463Z,16.83
2023-04-07T19:08:09.840Z,16.33
2023-04-07T19:10:37.228Z,17.60
2023-04-07T19:13:04.793Z,16.95
2023-04-07T19:15:36.516Z,19.48
2023-04-07T19:18:04.113Z,18.50
2023-04-07T19:20:33.535Z,17.80
2023-04-07T19:23:01.959Z,18.75
2023-04-07T19:25:30.740Z,18.95
2023-04-07T19:27:58.248Z,17.42
2023-04-07T19:30:25.601Z,18.47
2023-04-07T19:32:53.296Z,19.33
2023-04-07T19:35:21.113Z,19.63
2023-04-07T19:37:48.526Z,19.75
2023-04-07T19:40:15.896Z,19.92
2023-04-07T19:42:43.143Z,18.53
2023-04-07T19:45:10.572Z,17.63
2023-04-07T19:47:38.487Z,17.45
2023-04-07T19:50:06.787Z,17.63
2023-04-07T19:52:34.126Z,18.63
2023-04-07T19:55:02.744Z,17.50
2023-04-07T19:57:31.263Z,18.80
2023-04-07T19:59:58.508Z,19.17
2023-04-07T20:02:26.054Z,18.67
2023-04-07T20:04:53.758Z,18.38
2023-04-07T20:07:21.912Z,20.10
2023-04-07T20:09:51.435Z,17.77
2023-04-07T20:12:18.786Z,19.27
2023-04-07T20:14:46.380Z,18.10
2023-04-07T20:17:13.592Z,18.17
2023-04-07T20:19:41.533Z,18.90
2023-04-07T20:22:08.917Z,17.25
2023-04-07T20:24:36.275Z,18.27
2023-04-07T20:27:03.610Z,18.00
2023-04-07T20:29:31.216Z,18.48
2023-04-07T20:31:58.501Z,17.60
2023-04-07T20:34:25.911Z,17.50
2023-04-07T20:36:53.197Z,18.65
2023-04-07T20:39:20.529Z,18.00
2023-04-07T20:41:48.019Z,17.75
2023-04-07T20:44:15.328Z,17.87
2023-04-07T20:46:44.003Z,16.98
2023-04-07T20:49:11.248Z,17.90
2023-04-07T20:51:38.519Z,17.38
2023-04-07T20:54:06.036Z,17.63
2023-04-07T20:56:33.386Z,17.00
2023-04-07T20:59:00.897Z,16.70
2023-04-07T21:01:28.407Z,17.75
2023-04-07T21:03:55.788Z,17.55
2023-04-07T21:06:23.078Z,17.20
2023-04-07T21:08:50.554Z,15.47
2023-04-07T21:11:17.920Z,16.65
2023-04-07T21:13:45.416Z,16.63
2023-04-07T21:16:12.738Z,15.50
2023-04-07T21:18:40.108Z,16.10
2023-04-07T21:21:08.267Z,15.40
2023-04-07T21:23:35.559Z,15.55
2023-04-07T21:26:05.998Z,15.07
2023-04-07T21:28:33.301Z,15.15
2023-04-07T21:31:01.381Z,15.50
2023-04-07T21:33:28.955Z,14.83
2023-04-07T21:35:56.532Z,16.30
2023-04-07T21:38:23.865Z,16.45
2023-04-07T21:40:51.331Z,16.63
2023-04-07T21:43:18.605Z,17.23
2023-04-07T21:45:47.070Z,17.07
2023-04-07T21:48:20.840Z,17.55
2023-04-07T21:50:48.180Z,17.92
2023-04-07T21:53:15.431Z,16.98
2023-04-07T21:55:42.700Z,16.60
2023-04-07T21:58:10.386Z,16.63
2023-04-07T22:00:38.540Z,17.20
2023-04-07T22:03:07.163Z,15.60
2023-04-07T22:05:34.637Z,17.48
2023-04-07T22:08:03.137Z,21.98
2023-04-07T22:10:31.043Z,19.20
2023-04-07T22:12:58.307Z,16.27
2023-04-07T22:15:25.746Z,15.88
2023-04-07T22:17:53.099Z,14.00
2023-04-07T22:20:20.463Z,15.98
2023-04-07T22:22:47.724Z,15.47
2023-04-07T22:25:15.055Z,14.80
2023-04-07T22:27:42.362Z,15.45
2023-04-07T22:30:10.942Z,15.82
2023-04-07T22:32:38.377Z,15.55
2023-04-07T22:35:05.966Z,15.63
2023-04-07T22:37:33.232Z,15.50
2023-04-07T22:40:00.555Z,15.15
2023-04-07T22:42:27.814Z,16.00
2023-04-07T22:44:55.080Z,15.63
2023-04-07T22:47:22.640Z,16.53
2023-04-07T22:49:49.981Z,16.27
2023-04-07T22:52:17.248Z,16.33
2023-04-07T22:54:44.600Z,15.40
2023-04-07T22:57:11.883Z,14.52
2023-04-07T22:59:39.106Z,14.03
2023-04-07T23:02:06.393Z,14.52
2023-04-07T23:04:33.717Z,15.15
2023-04-07T23:07:01.450Z,14.18
2023-04-07T23:09:28.692Z,14.48
2023-04-07T23:11:57.101Z,13.23
2023-04-07T23:14:24.373Z,13.85
2023-04-07T23:16:51.748Z,14.90
2023-04-07T23:19:19.123Z,14.57
2023-04-07T23:21:46.389Z,13.80
2023-04-07T23:24:13.742Z,14.10
2023-04-07T23:26:41.088Z,13.02
2023-04-07T23:29:08.413Z,13.73
2023-04-07T23:31:35.930Z,14.32
2023-04-07T23:34:04.210Z,13.80
2023-04-07T23:36:31.605Z,12.83
2023-04-07T23:38:58.923Z,13.48
2023-04-07T23:41:26.181Z,13.73
2023-04-07T23:43:53.463Z,13.52
2023-04-07T23:46:22.096Z,13.02
2023-04-07T23:48:49.911Z,14.27
2023-04-07T23:51:17.342Z,13.55
2023-04-07T23:53:44.650Z,13.35
2023-04-07T23:56:12.011Z,13.25
2023-04-07T23:58:39.302Z,14.10
